Delray Beach, Florida
Current Conditions -  °F | °C
As of 5:47 PM on Tuesday 25 Nov 2014 (Local Time) from KBCT Reporting Station
Scattered Clouds Scattered Clouds  
Wind Chill: 79°   Ceiling: Unl
Heat Index: 82°   Visibility: 10mi
Dew Point: 73°   Wind: 9mph
Humidity: 83%   Direction: 190°S
Pressure: 29.95"   Gusts: 21mph
Location:  26.46°N, 80.07°W
Report Text: KBCT 252247Z 19008G18KT 10SM SCT015 26/23 A2995
Loading
Personal Weather Stations






























Interactive Weather Map New forecast layout! Learn more

10-Day Weather Forecast

Advertisements
Track Severe Weather on mobile